WetterOnline ( https://www.wetteronline.de )

Wetter aktuell Löhne

Aktuelles Wetter: Bad Salzuflen (139m)

6-stündlich | Neueste Meldungen
Ortszeit Temperatur Wetter
Do, 23.01. 13:00 4.4° C bedeckt
Do, 23.01. 7:00 1.8° C bedeckt
Do, 23.01. 1:00 2.2° C bedeckt
Mi, 22.01. 19:00 2.1° C bedeckt
Mi, 22.01. 13:00 1.6° C bedeckt
Mi, 22.01. 7:00 0.3° C bedeckt
Mi, 22.01. 1:00 -0.5° C bedeckt
Di, 21.01. 19:00 0.7° C fast wolkenlos
Ortszeit Temperatur Wetter
Do, 23.01. 17:30 2.2° C leicht bewölkt
Do, 23.01. 17:20 2.2° C leicht bewölkt
Do, 23.01. 17:10 2.4° C fast wolkenlos
Do, 23.01. 17:00 2.5° C leicht bewölkt
Do, 23.01. 16:50 2.5° C leicht bewölkt
Do, 23.01. 16:40 2.7° C leicht bewölkt
Do, 23.01. 16:30 3.1° C bewölkt
Do, 23.01. 16:00 3.2° C bedeckt
Ortszeit Relative Feuchte Sichtweite
Do, 23.01. 13:00 70% 55 km
Do, 23.01. 7:00 96% 1.7 km
Do, 23.01. 1:00 97% 1.9 km
Mi, 22.01. 19:00 96% 3.3 km
Mi, 22.01. 13:00 96% 1.4 km
Mi, 22.01. 7:00 92% 5.0 km
Mi, 22.01. 1:00 90% 14 km
Di, 21.01. 19:00 85% 18 km
Ortszeit Relative Feuchte Sichtweite
Do, 23.01. 17:30 80% 29 km
Do, 23.01. 17:20 80% -
Do, 23.01. 17:10 78% -
Do, 23.01. 17:00 78% 27 km
Do, 23.01. 16:50 78% -
Do, 23.01. 16:40 79% -
Do, 23.01. 16:30 77% 30 km
Do, 23.01. 16:00 76% 28 km
Ortszeit Niederschlagsmenge Niederschlagsart
Do, 23.01. 13:00 0.0 l/m2 in 6 Std. -
Do, 23.01. 7:00 0.0 l/m2 in 12 Std. -
Do, 23.01. 1:00 0.0 l/m2 in 6 Std. -
Mi, 22.01. 19:00 0.5 l/m2 in 12 Std. Sprühregen
Mi, 22.01. 13:00 0.4 l/m2 in 6 Std. Sprühregen
Mi, 22.01. 7:00 0.1 l/m2 in 12 Std. Sprühregen
Mi, 22.01. 1:00 0.0 l/m2 in 6 Std. -
Di, 21.01. 19:00 0.0 l/m2 in 12 Std. -
Ortszeit Niederschlagsmenge Niederschlagsart
Do, 23.01. 17:30 0.0 l/m2 in 1 Std. -
Do, 23.01. 17:20 keine Meldung -
Do, 23.01. 17:10 keine Meldung -
Do, 23.01. 17:00 0.0 l/m2 in 1 Std. -
Do, 23.01. 16:50 keine Meldung -
Do, 23.01. 16:40 keine Meldung -
Do, 23.01. 16:30 0.0 l/m2 in 1 Std. -
Do, 23.01. 16:00 0.0 l/m2 in 1 Std. -
Ortszeit Stärke Spitze Richtung
km/h Bft. km/h Grad Sektor
Do, 23.01. 13:00 13 3 20 180° S
Do, 23.01. 7:00 2 1 9 100° O
Do, 23.01. 1:00 4 1 11 180° S
Mi, 22.01. 19:00 6 1 15 180° S
Mi, 22.01. 13:00 6 1 20 180° S
Mi, 22.01. 7:00 9 2 19 200° S
Mi, 22.01. 1:00 7 2 14 200° S
Di, 21.01. 19:00 9 2 20 190° S
Ortszeit Stärke Spitze Richtung
km/h Bft. km/h Grad Sektor
Do, 23.01. 17:30 6 1 13 180° S
Do, 23.01. 17:20 6 1 - 180° S
Do, 23.01. 17:10 4 1 - 180° S
Do, 23.01. 17:00 9 2 19 180° S
Do, 23.01. 16:50 9 2 - 180° S
Do, 23.01. 16:40 9 2 - 180° S
Do, 23.01. 16:30 9 2 19 180° S
Do, 23.01. 16:00 13 3 19 180° S
Ortszeit Untergrenze Bedeckung Gattung
total tief tief mittel hoch
Do, 23.01. 13:00 570 m 8/8 8/8 - - -
Do, 23.01. 7:00 720 m 8/8 8/8 - - -
Do, 23.01. 1:00 60 m 8/8 8/8 - - -
Mi, 22.01. 19:00 60 m 8/8 8/8 - - -
Mi, 22.01. 13:00 30 m 8/8 8/8 - - -
Mi, 22.01. 7:00 120 m 8/8 8/8 - - -
Mi, 22.01. 1:00 210 m 8/8 8/8 - - -
Di, 21.01. 19:00 10500 m 2/8 0/8 - - -
Ortszeit Bedeckungsgrad in Achtel und Wolkenuntergrenze
Do, 23.01. 17:30 4(480m)
Do, 23.01. 17:20 4(480m)
Do, 23.01. 17:10 1(480m)
Do, 23.01. 17:00 3(480m)
Do, 23.01. 16:50 3(480m)
Do, 23.01. 16:40 4(480m)
Do, 23.01. 16:30 7(480m)
Do, 23.01. 16:00 8(510m)
Ortszeit Luftdruck NN (hPa) Tendenz (hPa in 3 Std.)
Do, 23.01. 13:00 1033 - 1,7
Do, 23.01. 7:00 1035 - 0,7
Do, 23.01. 1:00 1037 + 0,5
Mi, 22.01. 19:00 1036 + 1,0
Mi, 22.01. 13:00 1036 - 0,2
Mi, 22.01. 7:00 1036 - 1,3
Mi, 22.01. 1:00 1038 - 0,9
Di, 21.01. 19:00 1040 - 1,1
Ortszeit Luftdruck NN (hPa) Tendenz (hPa in 3 Std.)
Do, 23.01. 17:30 1030 - 1,9
Do, 23.01. 17:20 1030 keine Meldung
Do, 23.01. 17:10 1030 keine Meldung
Do, 23.01. 17:00 1030 - 2,4
Do, 23.01. 16:50 1030 keine Meldung
Do, 23.01. 16:40 1030 keine Meldung
Do, 23.01. 16:30 1030 - 2,3
Do, 23.01. 16:00 1031 - 2,3
Ortszeit Schneehöhe (cm)
Do, 23.01. 13:00 0
Do, 23.01. 7:00 0
Do, 23.01. 1:00 0
Mi, 22.01. 19:00 0
Mi, 22.01. 13:00 0
Mi, 22.01. 7:00 0
Mi, 22.01. 1:00 0
Di, 21.01. 19:00 0
Ortszeit Schneehöhe (cm)
Do, 23.01. 17:30 0
Do, 23.01. 17:20 0
Do, 23.01. 17:10 0
Do, 23.01. 17:00 0
Do, 23.01. 16:50 0
Do, 23.01. 16:40 0
Do, 23.01. 16:30 0
Do, 23.01. 16:00 0
Link zu dieser Seite / Seite empfehlen

Das Wetter in ...